Chesterville, Mississippi
Current Conditions -  °F | °C
As of 11:53 AM on Friday 21 Nov 2014 (Local Time) from KTUP Reporting Station
Overcast Overcast  
Wind Chill: 57°   Ceiling: 6000
Heat Index: 57°   Visibility: 10mi
Dew Point: 38°   Wind: 7mph
Humidity: 49%   Direction: 170°S
Pressure: 30.35"   Gusts: NA
Location:  34.2235°N, 88.7398°W
Report Text: KTUP 211753Z 17006KT 10SM OVC060 14/03 A3035 RMK AO2 SLP277 T01390033 10139 20050 58004
Loading
Personal Weather Stations






























Interactive Weather Map New forecast layout! Learn more

10-Day Weather Forecast

Advertisements
Track Severe Weather on mobile